Time;durP1;ratioP1;P1;durP2;ratioP2;P2;SDS_P1;SDS_P2;PMS_P1;PMS_P2;Temp;Humidity;BMP_temperature;BMP_pressure;BME280_temperature;BME280_humidity;BME280_pressure;Samples;Min_cycle;Max_cycle;Signal;HPM_P1;HPM_P2
2023/05/19 00:02:07;;;;;;;7.47;2.90;;;;;;;13.76;87.60;98695.31;5128304;28;20397;-94
2023/05/19 00:04:34;;;;;;;4.13;2.90;;;;;;;13.82;86.62;98707.59;5128471;28;20049;-94
2023/05/19 00:07:02;;;;;;;4.47;2.65;;;;;;;14.03;87.00;98735.25;5129233;28;20039;-95
2023/05/19 00:09:29;;;;;;;4.95;2.67;;;;;;;13.79;86.25;98690.78;5133360;27;20334;-94
2023/05/19 00:11:57;;;;;;;4.80;2.92;;;;;;;13.81;86.10;98700.47;5128587;27;20043;-95
2023/05/19 00:14:24;;;;;;;4.03;2.50;;;;;;;13.73;86.36;98692.78;5127963;28;20093;-95
2023/05/19 00:16:50;;;;;;;6.47;3.00;;;;;;;13.76;86.53;98692.66;5129564;27;20049;-94
2023/05/19 00:19:17;;;;;;;4.88;2.70;;;;;;;13.78;86.37;98689.94;5143847;27;20078;-94
2023/05/19 00:21:43;;;;;;;5.30;2.83;;;;;;;13.88;84.97;98709.09;5127705;28;20040;-94
2023/05/19 00:24:09;;;;;;;5.20;2.50;;;;;;;13.76;84.76;98681.97;5130650;27;20049;-93
2023/05/19 00:26:36;;;;;;;5.45;2.72;;;;;;;13.85;84.70;98685.19;5137269;27;20039;-94
2023/05/19 00:29:04;;;;;;;5.07;3.03;;;;;;;13.84;82.84;98680.78;5149523;27;20043;-94
2023/05/19 00:31:32;;;;;;;6.82;2.53;;;;;;;14.04;83.29;98712.91;5138614;27;20039;-94
2023/05/19 00:33:59;;;;;;;3.20;2.30;;;;;;;13.82;82.21;98661.28;5127130;28;20066;-94
2023/05/19 00:36:25;;;;;;;6.07;3.15;;;;;;;13.82;82.17;98659.47;5127995;28;20138;-95
2023/05/19 00:38:51;;;;;;;4.70;2.60;;;;;;;13.81;82.14;98664.88;5131035;27;20047;-95
2023/05/19 00:41:17;;;;;;;5.72;2.60;;;;;;;13.76;81.88;98663.25;5128147;28;20134;-94
2023/05/19 00:43:44;;;;;;;4.65;2.75;;;;;;;13.86;81.63;98677.13;5127862;28;20048;-94
2023/05/19 00:46:11;;;;;;;6.03;2.78;;;;;;;14.01;81.68;98699.66;5127738;28;20050;-93
2023/05/19 00:48:38;;;;;;;3.45;2.10;;;;;;;13.81;80.79;98657.72;5139055;27;20060;-93
2023/05/19 00:51:05;;;;;;;5.13;2.80;;;;;;;13.73;80.83;98659.88;5127475;28;20057;-95
2023/05/19 00:53:33;;;;;;;4.43;2.45;;;;;;;13.68;81.49;98643.13;5145642;27;20047;-93
2023/05/19 00:56:00;;;;;;;4.57;2.58;;;;;;;13.69;81.45;98655.56;5132016;27;20488;-95
2023/05/19 00:58:29;;;;;;;3.90;2.58;;;;;;;13.74;81.02;98662.44;5132150;27;20038;-95
2023/05/19 01:01:02;;;;;;;47.20;43.28;;;;;;;13.90;82.22;98691.22;5142991;27;20040;-94
2023/05/19 01:03:31;;;;;;;66.70;49.58;;;;;;;13.84;82.24;98687.00;5131195;27;20062;-94
2023/05/19 01:06:00;;;;;;;;;;;;;;;13.88;83.27;98701.97;5137723;27;20045;-94
2023/05/19 01:08:27;;;;;;;155.45;98.47;;;;;;;13.53;84.80;98656.22;5130620;27;19920;-94
2023/05/19 01:10:53;;;;;;;2.67;1.73;;;;;;;13.54;84.37;98659.75;5136698;27;20035;-93
2023/05/19 01:13:19;;;;;;;2.92;1.80;;;;;;;13.68;83.36;98689.41;5140734;27;20035;-93
2023/05/19 01:15:57;;;;;;;3.45;1.75;;;;;;;13.50;84.98;98652.78;5127849;28;20618;-94
2023/05/19 01:18:29;;;;;;;4.50;2.50;;;;;;;13.47;83.51;98656.44;5126995;28;20036;-94
2023/05/19 01:21:12;;;;;;;3.15;2.20;;;;;;;13.51;83.72;98665.19;5106445;28;20056;-94
2023/05/19 01:23:50;;;;;;;5.28;4.00;;;;;;;13.45;84.21;98662.78;5141219;27;20031;-94
2023/05/19 01:26:39;;;;;;;35.67;6.68;;;;;;;13.39;85.39;98657.69;5126243;27;20110;-94
2023/05/19 01:29:27;;;;;;;118.37;72.13;;;;;;;13.51;87.07;98697.25;5122779;28;20035;-94
2023/05/19 01:31:58;;;;;;;37.72;35.67;;;;;;;13.29;87.47;98662.53;5126643;28;20063;-94
2023/05/19 01:34:26;;;;;;;4.53;2.85;;;;;;;13.33;88.17;98664.13;5131920;28;20043;-94
2023/05/19 01:36:54;;;;;;;4.20;2.40;;;;;;;13.31;89.07;98661.53;5126836;28;20063;-94
2023/05/19 01:39:21;;;;;;;4.45;2.55;;;;;;;13.35;90.27;98670.28;5129128;28;20039;-94
2023/05/19 01:41:49;;;;;;;33.88;18.60;;;;;;;13.21;88.73;98646.78;5147726;27;20369;-94
2023/05/19 01:44:16;;;;;;;63.17;33.35;;;;;;;13.40;87.22;98675.44;5133837;28;20047;-94
2023/05/19 01:46:42;;;;;;;4.80;2.50;;;;;;;13.25;87.32;98629.72;5128083;28;20069;-94
2023/05/19 01:49:10;;;;;;;5.75;2.75;;;;;;;13.24;87.23;98627.97;5127976;28;20043;-93
2023/05/19 01:51:37;;;;;;;3.47;2.53;;;;;;;13.18;86.67;98630.00;5120200;28;20039;-94
2023/05/19 01:54:05;;;;;;;5.32;3.17;;;;;;;13.12;88.78;98644.50;5128383;28;20411;-94
2023/05/19 01:56:40;;;;;;;5.20;2.97;;;;;;;13.21;91.27;98667.28;5127645;28;20047;-95
2023/05/19 01:59:21;;;;;;;4.22;2.78;;;;;;;13.02;95.59;98645.78;5133895;28;20078;-93
2023/05/19 02:01:52;;;;;;;29.02;26.67;;;;;;;12.79;96.83;98649.31;5125198;28;20047;-95
2023/05/19 02:04:28;;;;;;;5.75;2.67;;;;;;;12.99;97.59;98693.91;5126870;28;20058;-93
2023/05/19 02:07:00;;;;;;;6.35;3.10;;;;;;;12.62;99.83;98644.59;5128865;27;20046;-94
2023/05/19 02:09:36;;;;;;;45.47;19.88;;;;;;;12.58;99.39;98648.31;5118681;27;20054;-94
2023/05/19 02:12:08;;;;;;;5.70;3.10;;;;;;;12.63;100.00;98651.69;5117256;28;20191;-96
2023/05/19 02:14:39;;;;;;;20.42;19.25;;;;;;;12.64;99.86;98643.66;5121130;27;20126;-93
2023/05/19 02:17:05;;;;;;;4.55;2.97;;;;;;;12.52;99.29;98650.28;5113983;28;20035;-93
2023/05/19 02:19:34;;;;;;;3.53;2.40;;;;;;;12.47;99.54;98649.59;5121773;27;20035;-93
2023/05/19 02:22:00;;;;;;;5.15;2.60;;;;;;;12.68;100.00;98692.41;5126030;27;20050;-96
2023/05/19 02:24:26;;;;;;;5.50;2.90;;;;;;;12.37;100.00;98653.53;5119087;27;20054;-93
2023/05/19 02:26:53;;;;;;;3.88;2.53;;;;;;;12.39;100.00;98661.47;5126882;27;20043;-94
2023/05/19 02:29:19;;;;;;;4.88;2.63;;;;;;;12.42;100.00;98666.69;5121457;28;20040;-94
2023/05/19 02:31:45;;;;;;;4.15;2.70;;;;;;;12.44;100.00;98696.84;5119687;28;20495;-93
2023/05/19 02:34:11;;;;;;;5.55;2.70;;;;;;;12.35;100.00;98673.16;5122891;27;20046;-93
2023/05/19 02:36:40;;;;;;;3.65;2.20;;;;;;;12.36;100.00;98665.13;5130490;27;20620;-94
2023/05/19 02:39:06;;;;;;;4.35;2.88;;;;;;;12.52;100.00;98687.63;5119056;27;20072;-92
2023/05/19 02:41:32;;;;;;;3.78;2.30;;;;;;;12.36;100.00;98670.47;5128490;27;20039;-93
2023/05/19 02:43:58;;;;;;;4.40;3.00;;;;;;;12.22;100.00;98652.28;5130268;27;20026;-94
2023/05/19 02:46:25;;;;;;;6.43;2.95;;;;;;;12.21;100.00;98654.97;5124762;27;20032;-94
2023/05/19 02:48:52;;;;;;;3.97;3.00;;;;;;;12.13;100.00;98648.13;5131822;27;20061;-93
2023/05/19 02:51:18;;;;;;;5.30;2.83;;;;;;;12.28;100.00;98672.53;5119614;28;20032;-93
2023/05/19 02:53:45;;;;;;;5.13;2.90;;;;;;;12.18;100.00;98645.31;5128704;27;20051;-92
2023/05/19 02:56:11;;;;;;;4.05;2.45;;;;;;;12.21;100.00;98644.31;5140679;27;20042;-94
2023/05/19 02:58:38;;;;;;;5.00;2.78;;;;;;;12.40;100.00;98672.06;5125952;27;20055;-94
2023/05/19 03:01:04;;;;;;;7.53;2.70;;;;;;;12.39;100.00;98659.66;5122342;27;20138;-96
2023/05/19 03:03:31;;;;;;;5.35;2.70;;;;;;;12.48;100.00;98662.00;5119490;27;20063;-93
2023/05/19 03:05:58;;;;;;;3.80;2.42;;;;;;;12.30;100.00;98630.69;5134204;27;20051;-95
2023/05/19 03:08:24;;;;;;;4.38;2.58;;;;;;;12.40;100.00;98644.53;5131778;27;20040;-93
2023/05/19 03:10:51;;;;;;;5.72;2.80;;;;;;;12.29;100.00;98642.25;5137897;27;20035;-93
2023/05/19 03:13:17;;;;;;;4.43;2.70;;;;;;;12.19;100.00;98631.06;5129574;27;20035;-92
2023/05/19 03:15:43;;;;;;;4.30;2.80;;;;;;;12.27;100.00;98633.44;5115651;27;20041;-93
2023/05/19 03:18:11;;;;;;;5.75;2.80;;;;;;;12.29;100.00;98636.91;5127288;27;20122;-93
2023/05/19 03:20:37;;;;;;;3.95;2.50;;;;;;;12.40;100.00;98657.88;5124761;27;20130;-93
2023/05/19 03:23:03;;;;;;;4.10;2.80;;;;;;;12.33;99.87;98642.09;5127916;27;20073;-94
2023/05/19 03:25:29;;;;;;;4.50;2.45;;;;;;;12.41;100.00;98635.63;5119448;27;20464;-94
2023/05/19 03:27:56;;;;;;;5.40;2.50;;;;;;;12.34;100.00;98640.31;5122957;27;20080;-95
2023/05/19 03:30:23;;;;;;;4.15;2.60;;;;;;;12.33;100.00;98641.22;5120318;27;20035;-95
2023/05/19 03:32:50;;;;;;;4.72;2.83;;;;;;;12.36;100.00;98643.78;5129466;27;20492;-94
2023/05/19 03:35:16;;;;;;;4.18;2.63;;;;;;;12.32;100.00;98642.16;5119472;27;20159;-95
2023/05/19 03:37:42;;;;;;;4.13;2.55;;;;;;;12.25;100.00;98641.50;5134014;27;20046;-94
2023/05/19 03:40:09;;;;;;;4.85;2.63;;;;;;;12.31;100.00;98661.72;5124064;27;20046;-93
2023/05/19 03:42:35;;;;;;;58.13;9.30;;;;;;;12.38;100.00;98667.72;5128775;27;20041;-93
2023/05/19 03:45:08;;;;;;;12.05;10.32;;;;;;;12.27;100.00;98650.31;5122731;27;20512;-93
2023/05/19 03:47:34;;;;;;;5.32;2.70;;;;;;;12.22;100.00;98646.94;5137317;27;20049;-95
2023/05/19 03:50:00;;;;;;;52.72;46.28;;;;;;;12.22;100.00;98636.28;5122487;27;20035;-94
2023/05/19 03:52:27;;;;;;;11.38;4.47;;;;;;;12.23;100.00;98638.03;5132001;27;20074;-93
2023/05/19 03:54:53;;;;;;;233.60;126.38;;;;;;;12.27;100.00;98638.78;5124672;27;20051;-93
2023/05/19 03:57:19;;;;;;;5.18;2.70;;;;;;;12.37;100.00;98658.84;5118113;27;20039;-93
2023/05/19 03:59:45;;;;;;;4.60;2.83;;;;;;;12.42;100.00;98680.88;5137665;27;20039;-94
2023/05/19 04:02:13;;;;;;;4.82;2.95;;;;;;;12.32;100.00;98658.16;5133685;27;20043;-95
2023/05/19 04:04:39;;;;;;;7.85;3.03;;;;;;;12.39;100.00;98657.00;5135844;27;20088;-96
2023/05/19 04:07:06;;;;;;;4.82;2.55;;;;;;;12.56;100.00;98684.88;5129922;27;20046;-94
2023/05/19 04:09:34;;;;;;;4.10;2.70;;;;;;;12.60;100.00;98687.38;5128315;27;20043;-93
2023/05/19 04:12:01;;;;;;;50.05;9.50;;;;;;;12.43;100.00;98655.09;5125795;27;20035;-94
2023/05/19 04:14:27;;;;;;;7.20;5.43;;;;;;;12.40;100.00;98658.72;5126720;27;20107;-95
2023/05/19 04:16:53;;;;;;;34.80;30.88;;;;;;;12.48;100.00;98667.31;5122537;27;20044;-93
2023/05/19 04:19:21;;;;;;;5.63;2.85;;;;;;;12.33;100.00;98644.75;5117103;27;20047;-92
2023/05/19 04:21:47;;;;;;;4.72;2.80;;;;;;;12.35;100.00;98644.69;5128353;27;20035;-95
2023/05/19 04:24:13;;;;;;;6.20;2.83;;;;;;;12.57;100.00;98679.47;5121144;27;20016;-94
2023/05/19 04:26:44;;;;;;;4.72;2.95;;;;;;;12.53;100.00;98683.16;5127842;27;20487;-92
2023/05/19 04:29:12;;;;;;;5.90;3.08;;;;;;;12.51;100.00;98672.56;5122184;27;20044;-94
2023/05/19 04:31:39;;;;;;;3.90;2.63;;;;;;;12.41;100.00;98659.63;5131892;27;20495;-95
2023/05/19 04:34:06;;;;;;;5.53;2.88;;;;;;;12.45;100.00;98659.44;5125052;27;20040;-94
2023/05/19 04:36:34;;;;;;;5.22;2.88;;;;;;;12.47;100.00;98657.59;5133725;27;20424;-93
2023/05/19 04:39:08;;;;;;;5.65;2.95;;;;;;;12.47;100.00;98654.03;5135249;27;20453;-92
2023/05/19 04:41:35;;;;;;;5.05;2.72;;;;;;;12.57;100.00;98646.59;5135270;27;20039;-94
2023/05/19 04:44:01;;;;;;;4.28;2.60;;;;;;;12.62;100.00;98656.16;5119247;27;20478;-93
2023/05/19 04:46:28;;;;;;;5.53;2.83;;;;;;;12.61;100.00;98653.56;5123335;28;20044;-93
2023/05/19 04:48:55;;;;;;;55.28;4.90;;;;;;;12.68;100.00;98660.38;5113053;27;20066;-93
2023/05/19 04:51:26;;;;;;;5.20;2.67;;;;;;;12.69;100.00;98657.66;5135006;27;20067;-94
2023/05/19 04:53:54;;;;;;;5.38;2.70;;;;;;;12.97;100.00;98656.63;5115611;27;20040;-94
2023/05/19 04:56:21;;;;;;;4.95;2.60;;;;;;;12.79;99.14;98647.50;5115460;27;20059;-93
2023/05/19 04:58:47;;;;;;;28.60;27.10;;;;;;;12.83;98.79;98659.81;5131326;27;20099;-93
2023/05/19 05:01:14;;;;;;;4.38;2.80;;;;;;;12.93;97.60;98674.56;5132736;27;20074;-92
2023/05/19 05:03:40;;;;;;;5.22;2.70;;;;;;;12.88;97.57;98646.28;5119713;28;20043;-93
2023/05/19 05:06:07;;;;;;;6.25;2.80;;;;;;;12.96;95.80;98649.53;5131515;27;20050;-94
2023/05/19 05:08:33;;;;;;;4.18;2.55;;;;;;;13.29;95.62;98678.53;5131140;27;20090;-94
2023/05/19 05:11:01;;;;;;;3.85;2.50;;;;;;;13.45;96.93;98678.81;5126385;27;20480;-94
2023/05/19 05:13:28;;;;;;;78.70;70.32;;;;;;;13.42;97.20;98660.22;5128716;27;20039;-94
2023/05/19 05:15:55;;;;;;;4.40;2.40;;;;;;;13.54;97.11;98662.41;5127786;27;20138;-93
2023/05/19 05:18:24;;;;;;;4.72;3.00;;;;;;;13.73;98.07;98674.09;5126347;27;20074;-93
2023/05/19 05:20:52;;;;;;;88.10;57.67;;;;;;;13.97;100.00;98692.72;5128313;27;20055;-95
2023/05/19 05:23:18;;;;;;;7.75;3.67;;;;;;;14.14;100.00;98695.53;5127440;27;20039;-94
2023/05/19 05:25:45;;;;;;;5.13;3.30;;;;;;;14.02;100.00;98668.44;5128812;27;20405;-95
2023/05/19 05:28:13;;;;;;;3.67;2.20;;;;;;;14.12;100.00;98701.91;5126359;27;20134;-94
2023/05/19 05:30:40;;;;;;;22.73;21.42;;;;;;;14.03;100.00;98675.53;5125464;27;20488;-93
2023/05/19 05:33:06;;;;;;;7.65;4.10;;;;;;;14.17;100.00;98681.16;5125148;27;20049;-94
2023/05/19 05:35:32;;;;;;;49.90;24.25;;;;;;;14.26;100.00;98690.59;5126405;28;20096;-93
2023/05/19 05:37:58;;;;;;;6.55;3.67;;;;;;;14.23;100.00;98682.72;5129466;27;20042;-95
2023/05/19 05:40:24;;;;;;;5.63;3.65;;;;;;;14.24;100.00;98695.13;5131307;28;20548;-94
2023/05/19 05:42:50;;;;;;;3.97;2.25;;;;;;;14.31;100.00;98702.84;5135153;27;20396;-95
2023/05/19 05:45:25;;;;;;;3.78;2.15;;;;;;;14.37;100.00;98717.75;5138689;27;20046;-95
2023/05/19 05:47:53;;;;;;;5.97;2.65;;;;;;;14.14;100.00;98673.28;5134216;27;20045;-95
2023/05/19 05:50:19;;;;;;;5.55;2.13;;;;;;;14.14;100.00;98684.84;5134938;28;20048;-94
2023/05/19 05:52:47;;;;;;;4.53;2.00;;;;;;;14.22;nan;98694.31;5128048;27;20019;-94
2023/05/19 05:55:14;;;;;;;5.13;2.50;;;;;;;14.18;100.00;98686.44;5133253;28;20055;-94
2023/05/19 05:57:40;;;;;;;2.95;2.08;;;;;;;14.25;100.00;98702.22;5121918;27;20066;-94
2023/05/19 06:00:14;;;;;;;5.80;2.65;;;;;;;14.10;100.00;98672.53;5145343;27;20050;-95
2023/05/19 06:02:42;;;;;;;2.83;1.85;;;;;;;14.01;99.97;98666.69;5125932;28;20054;-92
2023/05/19 06:05:11;;;;;;;3.22;2.20;;;;;;;13.89;100.00;98674.31;5143114;27;20068;-96
2023/05/19 06:07:37;;;;;;;3.38;2.00;;;;;;;13.99;99.05;98674.81;5129068;28;20116;-95
2023/05/19 06:10:04;;;;;;;5.22;2.40;;;;;;;14.01;98.19;98688.97;5119101;28;20047;-93
2023/05/19 06:12:30;;;;;;;4.05;2.22;;;;;;;14.08;99.20;98693.13;5099414;28;20457;-94
2023/05/19 06:14:56;;;;;;;3.72;2.17;;;;;;;14.06;99.91;98683.44;5118686;27;20042;-94
2023/05/19 06:17:22;;;;;;;5.10;2.35;;;;;;;14.18;98.00;98714.97;5124186;27;20456;-95
2023/05/19 06:19:49;;;;;;;4.10;1.90;;;;;;;14.02;99.34;98709.41;5124066;27;20043;-94
2023/05/19 06:22:16;;;;;;;2.65;1.90;;;;;;;13.85;100.00;98688.72;5123997;27;20047;-95
2023/05/19 06:24:42;;;;;;;2.83;1.73;;;;;;;13.90;100.00;98686.75;5133607;27;20071;-94
2023/05/19 06:27:08;;;;;;;2.70;1.85;;;;;;;14.00;100.00;98691.72;5134240;27;20039;-96
2023/05/19 06:29:34;;;;;;;2.50;1.55;;;;;;;14.11;100.00;98692.97;5133808;27;20047;-96
2023/05/19 06:32:00;;;;;;;2.05;1.58;;;;;;;14.02;98.17;98676.47;5132879;27;20035;-95
2023/05/19 06:34:26;;;;;;;5.38;1.70;;;;;;;14.34;99.15;98713.41;5129596;27;20035;-96
2023/05/19 06:36:54;;;;;;;8.77;2.03;;;;;;;14.28;100.00;98684.22;5131194;27;20113;-94
2023/05/19 06:39:20;;;;;;;2.33;1.58;;;;;;;14.35;98.21;98692.84;5119827;27;20091;-94
2023/05/19 06:41:46;;;;;;;2.70;1.92;;;;;;;14.36;95.76;98678.56;5109901;28;20052;-94
2023/05/19 06:44:12;;;;;;;1.60;1.50;;;;;;;14.53;96.36;98677.78;5113708;28;20050;-96
2023/05/19 06:46:39;;;;;;;3.38;2.17;;;;;;;14.64;95.83;98712.13;5113227;28;20046;-95
2023/05/19 06:49:05;;;;;;;1.77;1.58;;;;;;;14.50;95.07;98685.97;5113088;28;20111;-94
2023/05/19 06:51:31;;;;;;;2.15;1.92;;;;;;;14.70;95.60;98687.78;5113441;28;20051;-94
2023/05/19 06:53:59;;;;;;;3.10;1.50;;;;;;;14.91;94.77;98718.94;5113566;28;20047;-95
2023/05/19 06:56:25;;;;;;;2.65;1.67;;;;;;;14.96;94.28;98716.94;5114435;28;20082;-94
2023/05/19 06:58:51;;;;;;;2.08;1.60;;;;;;;15.02;93.98;98685.44;5113735;28;20048;-94
2023/05/19 07:01:18;;;;;;;3.72;1.90;;;;;;;15.27;91.47;98679.81;5113513;28;20047;-94
2023/05/19 07:03:46;;;;;;;3.92;2.78;;;;;;;15.45;89.92;98684.28;5113466;28;20040;-94
2023/05/19 07:06:15;;;;;;;2.13;1.93;;;;;;;15.39;88.29;98682.75;5113150;28;20047;-94
2023/05/19 07:08:41;;;;;;;3.28;1.80;;;;;;;15.68;86.84;98699.25;5113343;28;20284;-94
2023/05/19 07:11:11;;;;;;;1.65;1.55;;;;;;;15.54;86.18;98697.22;5118856;27;20408;-94
2023/05/19 07:13:37;;;;;;;2.83;1.67;;;;;;;15.54;85.92;98680.28;5092062;28;20047;-95
2023/05/19 07:16:03;;;;;;;3.25;1.40;;;;;;;15.45;86.00;98688.78;5093251;28;20032;-95
2023/05/19 07:18:30;;;;;;;1.92;1.80;;;;;;;15.41;87.05;98675.50;5093586;28;20044;-95
2023/05/19 07:20:57;;;;;;;2.03;1.60;;;;;;;15.54;86.60;98685.63;5092243;28;20047;-95
2023/05/19 07:23:23;;;;;;;3.28;1.45;;;;;;;15.28;87.32;98692.25;5092457;28;20044;-95
2023/05/19 07:25:52;;;;;;;3.05;1.98;;;;;;;15.26;88.83;98688.78;5092584;28;20048;-95
2023/05/19 07:28:23;;;;;;;9.88;2.10;;;;;;;15.36;86.95;98693.63;5093201;28;20040;-95
2023/05/19 07:30:49;;;;;;;4.60;2.60;;;;;;;15.39;88.60;98724.75;5091622;28;20040;-94
2023/05/19 07:33:16;;;;;;;78.13;21.67;;;;;;;15.11;89.49;98690.38;5110117;28;20048;-96
2023/05/19 07:35:43;;;;;;;26.33;23.63;;;;;;;15.12;89.92;98692.13;5112805;28;20050;-94
2023/05/19 07:38:09;;;;;;;4.18;2.60;;;;;;;15.07;91.01;98695.00;5112732;28;20039;-94
2023/05/19 07:40:35;;;;;;;4.57;2.72;;;;;;;15.13;89.19;98701.88;5112461;28;20457;-95
2023/05/19 07:43:01;;;;;;;3.47;2.58;;;;;;;14.99;90.12;98695.34;5112661;28;20052;-94
2023/05/19 07:45:29;;;;;;;3.00;2.00;;;;;;;14.97;91.50;98704.41;5122258;27;20049;-93
2023/05/19 07:47:55;;;;;;;4.70;1.98;;;;;;;14.80;92.25;98697.13;5120916;28;20043;-94
2023/05/19 07:50:21;;;;;;;4.65;2.08;;;;;;;14.53;93.12;98699.19;5112011;28;20040;-94
2023/05/19 07:52:47;;;;;;;3.63;2.25;;;;;;;14.54;95.66;98693.78;5111406;28;20078;-93
2023/05/19 07:55:13;;;;;;;3.88;2.33;;;;;;;14.58;96.71;98702.59;5112336;28;20107;-93
2023/05/19 07:57:40;;;;;;;3.95;2.40;;;;;;;14.71;96.01;98706.44;5115955;28;20035;-93
2023/05/19 08:00:10;;;;;;;3.33;2.45;;;;;;;14.68;95.86;98705.72;5129980;27;20094;-93
2023/05/19 08:02:38;;;;;;;3.88;2.00;;;;;;;14.76;95.63;98717.81;5113146;27;20423;-93
2023/05/19 08:05:05;;;;;;;4.97;1.83;;;;;;;14.72;97.47;98700.16;5125159;27;20065;-94
2023/05/19 08:07:31;;;;;;;2.95;1.88;;;;;;;14.59;97.92;98701.63;5126724;28;20071;-93
2023/05/19 08:09:58;;;;;;;2.70;2.03;;;;;;;14.55;99.01;98694.69;5111360;28;20040;-93
2023/05/19 08:12:24;;;;;;;1.92;1.60;;;;;;;14.57;99.41;98703.50;5115182;28;20047;-93
2023/05/19 08:14:51;;;;;;;3.20;2.38;;;;;;;14.52;100.00;98695.66;5128631;27;20055;-94
2023/05/19 08:17:17;;;;;;;2.40;1.92;;;;;;;14.55;100.00;98700.94;5130831;27;20104;-94
2023/05/19 08:19:44;;;;;;;3.70;2.15;;;;;;;14.58;100.00;98697.25;5129027;27;20059;-95
2023/05/19 08:22:10;;;;;;;2.17;1.80;;;;;;;14.66;100.00;98716.50;5131578;27;20042;-94
2023/05/19 08:24:37;;;;;;;3.13;2.17;;;;;;;14.86;100.00;98728.13;5114265;28;20048;-94
2023/05/19 08:27:04;;;;;;;3.17;2.03;;;;;;;14.73;100.00;98709.94;5109490;28;20047;-94
2023/05/19 08:29:30;;;;;;;2.90;2.33;;;;;;;14.75;100.00;98705.38;5110367;28;20039;-94
2023/05/19 08:31:57;;;;;;;3.10;2.10;;;;;;;14.98;100.00;98704.34;5110062;28;20051;-93
2023/05/19 08:34:23;;;;;;;3.70;2.40;;;;;;;14.55;100.00;98690.22;5110196;28;20040;-93
2023/05/19 08:36:52;;;;;;;3.53;2.03;;;;;;;14.56;100.00;98691.94;5108868;28;20114;-95
2023/05/19 08:39:22;;;;;;;3.95;2.42;;;;;;;14.75;100.00;98699.16;5109089;28;20104;-92
2023/05/19 08:41:49;;;;;;;3.38;2.25;;;;;;;14.55;100.00;98700.03;5128906;27;20069;-93
2023/05/19 08:44:15;;;;;;;4.15;2.00;;;;;;;14.64;100.00;98704.09;5129838;27;20130;-93
2023/05/19 08:46:41;;;;;;;32.25;29.42;;;;;;;14.80;100.00;98697.13;5121977;28;20066;-95
2023/05/19 08:49:11;;;;;;;12.00;10.77;;;;;;;14.84;100.00;98717.47;5109923;28;20515;-93
2023/05/19 08:51:47;;;;;;;3.63;2.05;;;;;;;14.65;100.00;98692.47;5109219;28;20044;-94
2023/05/19 08:54:16;;;;;;;3.00;1.80;;;;;;;14.80;100.00;98737.28;5117696;27;20390;-93
2023/05/19 08:56:43;;;;;;;5.18;2.28;;;;;;;14.58;100.00;98702.59;5126795;28;20039;-95
2023/05/19 08:59:10;;;;;;;1.95;1.65;;;;;;;14.70;100.00;98709.19;5110047;28;20457;-94
2023/05/19 09:01:37;;;;;;;3.20;2.40;;;;;;;15.03;100.00;98732.69;5113236;28;20043;-94
2023/05/19 09:04:03;;;;;;;3.00;1.70;;;;;;;15.04;100.00;98705.00;5110084;28;20051;-93
2023/05/19 09:06:31;;;;;;;3.58;1.83;;;;;;;15.03;100.00;98689.84;5112506;27;20047;-94
2023/05/19 09:08:57;;;;;;;4.72;2.65;;;;;;;15.18;100.00;98714.13;5114871;27;20039;-94
2023/05/19 09:11:25;;;;;;;3.65;2.08;;;;;;;15.14;100.00;98703.63;5114791;28;20051;-94
2023/05/19 09:13:52;;;;;;;4.37;2.33;;;;;;;15.20;99.87;98709.56;5128791;27;20035;-94
2023/05/19 09:16:20;;;;;;;299.20;91.57;;;;;;;15.18;99.10;98699.88;5130927;27;20063;-94
2023/05/19 09:18:54;;;;;;;5.47;3.55;;;;;;;15.29;99.59;98726.13;5112896;28;20493;-93
2023/05/19 09:21:27;;;;;;;13.50;8.52;;;;;;;15.03;99.59;98706.81;5128636;27;20042;-93
2023/05/19 09:23:54;;;;;;;4.85;3.10;;;;;;;14.91;99.78;98694.84;5127384;28;20044;-95
2023/05/19 09:26:22;;;;;;;5.68;3.28;;;;;;;14.92;100.00;98698.38;5144068;27;20042;-94
2023/05/19 09:28:50;;;;;;;5.38;3.00;;;;;;;14.92;100.00;98693.00;5124469;27;20043;-93
2023/05/19 09:31:16;;;;;;;7.18;3.50;;;;;;;15.06;99.51;98695.06;5110602;28;20052;-93
2023/05/19 09:33:42;;;;;;;6.47;3.35;;;;;;;15.31;97.55;98695.66;5116512;28;20045;-94
2023/05/19 09:36:10;;;;;;;6.07;3.17;;;;;;;15.43;97.51;98714.78;5136200;27;20073;-95
2023/05/19 09:38:37;;;;;;;93.32;88.22;;;;;;;15.71;97.88;98698.22;5135600;27;20036;-94
2023/05/19 09:41:04;;;;;;;55.80;53.40;;;;;;;15.69;94.14;98679.53;5113021;27;20051;-94
2023/05/19 09:43:32;;;;;;;49.45;47.33;;;;;;;15.54;94.21;98701.72;5126508;27;20034;-94
2023/05/19 09:46:03;;;;;;;6.32;5.70;;;;;;;15.56;93.96;98705.19;5130390;27;20037;-94
2023/05/19 09:48:29;;;;;;;13.20;12.32;;;;;;;15.67;94.36;98684.09;5110846;27;20388;-94
2023/05/19 09:50:56;;;;;;;12.55;11.95;;;;;;;15.58;94.29;98673.81;5117268;27;20568;-95
2023/05/19 09:53:24;;;;;;;5.75;5.25;;;;;;;15.85;93.76;98668.06;5125505;27;20059;-92
2023/05/19 09:55:55;;;;;;;5.47;2.80;;;;;;;16.19;90.97;98672.59;5129640;27;20030;-93
2023/05/19 09:58:21;;;;;;;4.50;2.78;;;;;;;16.07;90.91;98697.34;5144281;27;20559;-94
2023/05/19 10:00:48;;;;;;;4.10;2.67;;;;;;;16.12;91.31;98674.72;5116702;27;20129;-93
2023/05/19 10:03:16;;;;;;;8.40;3.05;;;;;;;16.45;88.50;98686.47;5111599;27;20450;-93
2023/05/19 10:05:43;;;;;;;4.43;2.70;;;;;;;16.35;87.72;98672.66;5123323;27;20040;-93
2023/05/19 10:08:10;;;;;;;5.78;3.10;;;;;;;16.36;87.62;98664.53;5122386;28;20062;-93
2023/05/19 10:10:37;;;;;;;4.68;3.13;;;;;;;15.98;90.12;98672.75;5124834;27;20066;-93
2023/05/19 10:13:04;;;;;;;6.05;3.33;;;;;;;15.84;91.78;98671.72;5125847;27;20042;-94
2023/05/19 10:15:30;;;;;;;6.68;3.25;;;;;;;15.95;90.21;98685.44;5121425;27;20039;-93
2023/05/19 10:17:56;;;;;;;4.43;2.80;;;;;;;16.18;89.09;98668.19;5129890;27;20031;-94
2023/05/19 10:20:25;;;;;;;6.32;3.30;;;;;;;16.69;89.02;98717.38;5129876;27;20044;-93
2023/05/19 10:22:51;;;;;;;4.43;3.03;;;;;;;16.96;87.38;98696.28;5134389;27;20039;-94
2023/05/19 10:25:18;;;;;;;6.65;2.92;;;;;;;17.21;85.78;98694.94;5137896;27;20045;-95
2023/05/19 10:27:51;;;;;;;6.68;2.80;;;;;;;17.35;84.04;98686.97;5127020;27;20088;-94
2023/05/19 10:30:24;;;;;;;5.10;2.70;;;;;;;17.72;82.62;98678.63;5128222;27;20035;-92
2023/05/19 10:32:53;;;;;;;6.25;5.75;;;;;;;17.70;79.17;98684.09;5127364;27;20043;-93
2023/05/19 10:35:32;;;;;;;6.82;3.33;;;;;;;17.61;80.82;98698.09;5122092;28;20520;-94
2023/05/19 10:38:09;;;;;;;5.53;2.50;;;;;;;18.10;79.07;98697.09;5122368;27;20076;-93
2023/05/19 10:40:38;;;;;;;4.90;2.67;;;;;;;18.45;76.73;98694.97;5125236;27;20074;-93
2023/05/19 10:43:14;;;;;;;3.95;2.60;;;;;;;17.91;77.18;98673.94;5124865;28;20044;-94
2023/05/19 10:45:46;;;;;;;5.82;3.20;;;;;;;17.58;80.80;98709.84;5122134;28;20405;-94
2023/05/19 10:48:14;;;;;;;5.00;3.00;;;;;;;17.85;79.34;98679.69;5119869;28;20046;-92
2023/05/19 10:50:43;;;;;;;6.70;2.80;;;;;;;17.53;78.61;98670.75;5127164;28;20531;-94
2023/05/19 10:53:13;;;;;;;;;;;;;;;18.18;78.64;98725.28;5125862;28;20103;-94
2023/05/19 10:55:46;;;;;;;4.88;3.35;;;;;;;17.69;79.95;98693.13;5125673;28;19959;-94
2023/05/19 10:58:12;;;;;;;5.88;3.33;;;;;;;17.42;82.87;98714.38;5125046;28;20556;-94
2023/05/19 11:00:40;;;;;;;5.35;2.97;;;;;;;17.48;82.34;98697.91;5124774;28;20138;-94
2023/05/19 11:03:13;;;;;;;4.93;3.17;;;;;;;17.47;80.94;98684.56;5125685;28;20044;-93
2023/05/19 11:05:44;;;;;;;4.20;3.03;;;;;;;17.39;82.52;98709.16;5126601;28;20057;-94
2023/05/19 11:08:11;;;;;;;6.03;2.80;;;;;;;16.96;84.53;98679.31;5128196;27;20530;-94
2023/05/19 11:10:37;;;;;;;5.93;3.05;;;;;;;16.87;85.46;98671.72;5121697;28;20462;-95
2023/05/19 11:13:05;;;;;;;5.85;3.20;;;;;;;16.58;86.71;98669.63;5110334;28;20511;-95
2023/05/19 11:15:35;;;;;;;80.63;54.58;;;;;;;16.72;87.08;98662.66;5112593;28;20043;-95
2023/05/19 11:18:01;;;;;;;6.55;3.15;;;;;;;16.35;89.75;98665.50;5110561;28;20053;-94
2023/05/19 11:20:33;;;;;;;13.48;12.18;;;;;;;16.60;88.24;98670.41;5112423;28;20051;-95
2023/05/19 11:23:09;;;;;;;1999.90;999.90;;;;;;;16.25;89.90;98674.09;5111780;28;20112;-94
2023/05/19 11:25:46;;;;;;;5.65;3.80;;;;;;;16.23;90.96;98666.97;5112523;28;20048;-94
2023/05/19 11:28:14;;;;;;;106.10;43.22;;;;;;;16.34;92.64;98673.63;5112736;28;20074;-94
2023/05/19 11:30:42;;;;;;;4.40;2.20;;;;;;;16.74;93.94;98712.66;5113516;28;20039;-95
2023/05/19 11:33:09;;;;;;;4.30;2.60;;;;;;;16.76;91.24;98713.44;5113216;28;20413;-94